sensor_id;sensor_type;location;lat;lon;timestamp;P1;durP1;ratioP1;P2;durP2;ratioP2
9214;SDS011;4642;51.364;6.788;2023-12-20T00:01:36;17.00;;;8.33;;
9214;SDS011;4642;51.364;6.788;2023-12-20T00:04:02;15.23;;;8.90;;
9214;SDS011;4642;51.364;6.788;2023-12-20T00:06:28;18.10;;;8.67;;
9214;SDS011;4642;51.364;6.788;2023-12-20T00:08:54;15.53;;;8.97;;
9214;SDS011;4642;51.364;6.788;2023-12-20T00:11:20;12.87;;;9.50;;
9214;SDS011;4642;51.364;6.788;2023-12-20T00:13:45;17.53;;;9.33;;
9214;SDS011;4642;51.364;6.788;2023-12-20T00:16:11;16.73;;;9.17;;
9214;SDS011;4642;51.364;6.788;2023-12-20T00:18:37;20.43;;;9.00;;
9214;SDS011;4642;51.364;6.788;2023-12-20T00:21:02;16.90;;;9.13;;
9214;SDS011;4642;51.364;6.788;2023-12-20T00:23:29;12.73;;;8.27;;
9214;SDS011;4642;51.364;6.788;2023-12-20T00:25:54;14.60;;;8.87;;
9214;SDS011;4642;51.364;6.788;2023-12-20T00:28:20;16.87;;;9.53;;
9214;SDS011;4642;51.364;6.788;2023-12-20T00:30:46;15.70;;;9.00;;
9214;SDS011;4642;51.364;6.788;2023-12-20T00:33:11;15.90;;;8.67;;
9214;SDS011;4642;51.364;6.788;2023-12-20T00:35:37;19.37;;;8.80;;
9214;SDS011;4642;51.364;6.788;2023-12-20T00:38:03;19.87;;;9.07;;
9214;SDS011;4642;51.364;6.788;2023-12-20T00:40:30;14.83;;;8.07;;
9214;SDS011;4642;51.364;6.788;2023-12-20T00:42:55;15.47;;;8.13;;
9214;SDS011;4642;51.364;6.788;2023-12-20T00:45:21;14.93;;;8.40;;
9214;SDS011;4642;51.364;6.788;2023-12-20T00:47:46;16.77;;;8.27;;
9214;SDS011;4642;51.364;6.788;2023-12-20T00:50:12;16.57;;;8.00;;
9214;SDS011;4642;51.364;6.788;2023-12-20T00:52:37;22.97;;;8.23;;
9214;SDS011;4642;51.364;6.788;2023-12-20T00:55:03;18.77;;;8.73;;
9214;SDS011;4642;51.364;6.788;2023-12-20T00:57:29;17.77;;;8.80;;
9214;SDS011;4642;51.364;6.788;2023-12-20T00:59:56;19.53;;;9.80;;
9214;SDS011;4642;51.364;6.788;2023-12-20T01:02:21;18.03;;;10.87;;
9214;SDS011;4642;51.364;6.788;2023-12-20T01:04:47;22.23;;;11.23;;
9214;SDS011;4642;51.364;6.788;2023-12-20T01:07:12;18.27;;;10.87;;
9214;SDS011;4642;51.364;6.788;2023-12-20T01:09:38;28.03;;;12.37;;
9214;SDS011;4642;51.364;6.788;2023-12-20T01:12:03;20.60;;;13.27;;
9214;SDS011;4642;51.364;6.788;2023-12-20T01:14:29;27.87;;;15.50;;
9214;SDS011;4642;51.364;6.788;2023-12-20T01:16:54;24.30;;;15.03;;
9214;SDS011;4642;51.364;6.788;2023-12-20T01:19:20;28.47;;;14.37;;
9214;SDS011;4642;51.364;6.788;2023-12-20T01:21:46;24.73;;;12.07;;
9214;SDS011;4642;51.364;6.788;2023-12-20T01:24:12;23.83;;;10.77;;
9214;SDS011;4642;51.364;6.788;2023-12-20T01:26:37;28.17;;;11.20;;
9214;SDS011;4642;51.364;6.788;2023-12-20T01:29:03;18.43;;;10.93;;
9214;SDS011;4642;51.364;6.788;2023-12-20T01:31:28;19.73;;;9.83;;
9214;SDS011;4642;51.364;6.788;2023-12-20T01:33:54;16.70;;;9.10;;
9214;SDS011;4642;51.364;6.788;2023-12-20T01:36:19;16.50;;;10.63;;
9214;SDS011;4642;51.364;6.788;2023-12-20T01:38:45;17.87;;;10.80;;
9214;SDS011;4642;51.364;6.788;2023-12-20T01:41:10;19.60;;;10.87;;
9214;SDS011;4642;51.364;6.788;2023-12-20T01:43:36;17.17;;;10.03;;
9214;SDS011;4642;51.364;6.788;2023-12-20T01:46:01;15.70;;;9.37;;
9214;SDS011;4642;51.364;6.788;2023-12-20T01:48:28;24.27;;;9.67;;
9214;SDS011;4642;51.364;6.788;2023-12-20T01:50:54;16.77;;;8.23;;
9214;SDS011;4642;51.364;6.788;2023-12-20T01:53:21;14.23;;;7.37;;
9214;SDS011;4642;51.364;6.788;2023-12-20T01:55:48;14.33;;;7.43;;
9214;SDS011;4642;51.364;6.788;2023-12-20T01:58:17;18.67;;;8.47;;
9214;SDS011;4642;51.364;6.788;2023-12-20T02:00:43;16.77;;;8.20;;
9214;SDS011;4642;51.364;6.788;2023-12-20T02:03:09;17.77;;;8.27;;
9214;SDS011;4642;51.364;6.788;2023-12-20T02:05:36;16.23;;;7.30;;
9214;SDS011;4642;51.364;6.788;2023-12-20T02:08:03;15.63;;;7.27;;
9214;SDS011;4642;51.364;6.788;2023-12-20T02:10:30;16.90;;;7.23;;
9214;SDS011;4642;51.364;6.788;2023-12-20T02:12:56;11.40;;;6.83;;
9214;SDS011;4642;51.364;6.788;2023-12-20T02:15:22;20.17;;;7.07;;
9214;SDS011;4642;51.364;6.788;2023-12-20T02:17:47;11.57;;;6.30;;
9214;SDS011;4642;51.364;6.788;2023-12-20T02:20:14;19.00;;;6.43;;
9214;SDS011;4642;51.364;6.788;2023-12-20T02:22:39;23.77;;;6.87;;
9214;SDS011;4642;51.364;6.788;2023-12-20T02:25:05;18.47;;;6.70;;
9214;SDS011;4642;51.364;6.788;2023-12-20T02:27:31;17.93;;;6.23;;
9214;SDS011;4642;51.364;6.788;2023-12-20T02:29:56;18.73;;;7.23;;
9214;SDS011;4642;51.364;6.788;2023-12-20T02:32:22;14.43;;;6.60;;
9214;SDS011;4642;51.364;6.788;2023-12-20T02:34:51;17.77;;;6.23;;
9214;SDS011;4642;51.364;6.788;2023-12-20T02:37:16;23.57;;;6.30;;
9214;SDS011;4642;51.364;6.788;2023-12-20T02:39:42;18.77;;;6.83;;
9214;SDS011;4642;51.364;6.788;2023-12-20T02:42:07;15.93;;;5.93;;
9214;SDS011;4642;51.364;6.788;2023-12-20T02:44:33;17.83;;;7.87;;
9214;SDS011;4642;51.364;6.788;2023-12-20T02:46:59;20.07;;;6.70;;
9214;SDS011;4642;51.364;6.788;2023-12-20T02:49:24;14.33;;;6.20;;
9214;SDS011;4642;51.364;6.788;2023-12-20T02:51:50;15.27;;;6.53;;
9214;SDS011;4642;51.364;6.788;2023-12-20T02:54:15;17.07;;;6.17;;
9214;SDS011;4642;51.364;6.788;2023-12-20T02:56:41;18.23;;;6.33;;
9214;SDS011;4642;51.364;6.788;2023-12-20T02:59:06;15.00;;;5.07;;
9214;SDS011;4642;51.364;6.788;2023-12-20T03:01:33;15.93;;;3.97;;
9214;SDS011;4642;51.364;6.788;2023-12-20T03:03:59;10.97;;;4.20;;
9214;SDS011;4642;51.364;6.788;2023-12-20T03:06:25;20.73;;;4.57;;
9214;SDS011;4642;51.364;6.788;2023-12-20T03:08:50;12.63;;;4.23;;
9214;SDS011;4642;51.364;6.788;2023-12-20T03:11:16;18.27;;;4.70;;
9214;SDS011;4642;51.364;6.788;2023-12-20T03:13:41;14.47;;;3.33;;
9214;SDS011;4642;51.364;6.788;2023-12-20T03:16:13;15.33;;;3.67;;
9214;SDS011;4642;51.364;6.788;2023-12-20T03:18:39;19.37;;;3.00;;
9214;SDS011;4642;51.364;6.788;2023-12-20T03:21:05;24.60;;;4.37;;
9214;SDS011;4642;51.364;6.788;2023-12-20T03:23:30;9.87;;;3.53;;
9214;SDS011;4642;51.364;6.788;2023-12-20T03:25:57;13.97;;;3.60;;
9214;SDS011;4642;51.364;6.788;2023-12-20T03:28:23;16.23;;;4.13;;
9214;SDS011;4642;51.364;6.788;2023-12-20T03:30:49;16.23;;;3.40;;
9214;SDS011;4642;51.364;6.788;2023-12-20T03:33:14;16.73;;;4.20;;
9214;SDS011;4642;51.364;6.788;2023-12-20T03:35:40;15.97;;;3.90;;
9214;SDS011;4642;51.364;6.788;2023-12-20T03:38:06;16.73;;;3.93;;
9214;SDS011;4642;51.364;6.788;2023-12-20T03:40:32;17.90;;;3.80;;
9214;SDS011;4642;51.364;6.788;2023-12-20T03:42:57;16.90;;;3.33;;
9214;SDS011;4642;51.364;6.788;2023-12-20T03:45:23;10.40;;;3.03;;
9214;SDS011;4642;51.364;6.788;2023-12-20T03:47:48;15.20;;;3.60;;
9214;SDS011;4642;51.364;6.788;2023-12-20T03:50:14;15.53;;;3.43;;
9214;SDS011;4642;51.364;6.788;2023-12-20T03:52:40;16.47;;;4.17;;
9214;SDS011;4642;51.364;6.788;2023-12-20T03:55:05;14.47;;;3.87;;
9214;SDS011;4642;51.364;6.788;2023-12-20T03:57:31;15.70;;;3.40;;
9214;SDS011;4642;51.364;6.788;2023-12-20T03:59:56;15.80;;;3.33;;
9214;SDS011;4642;51.364;6.788;2023-12-20T04:02:22;17.97;;;3.17;;
9214;SDS011;4642;51.364;6.788;2023-12-20T04:04:47;17.93;;;3.60;;
9214;SDS011;4642;51.364;6.788;2023-12-20T04:07:13;13.93;;;2.90;;
9214;SDS011;4642;51.364;6.788;2023-12-20T04:09:40;17.83;;;2.83;;
9214;SDS011;4642;51.364;6.788;2023-12-20T04:12:06;15.97;;;3.00;;
9214;SDS011;4642;51.364;6.788;2023-12-20T04:14:32;16.17;;;3.37;;
9214;SDS011;4642;51.364;6.788;2023-12-20T04:16:57;17.80;;;3.87;;
9214;SDS011;4642;51.364;6.788;2023-12-20T04:19:23;19.47;;;3.50;;
9214;SDS011;4642;51.364;6.788;2023-12-20T04:21:48;14.20;;;3.07;;
9214;SDS011;4642;51.364;6.788;2023-12-20T04:24:14;13.43;;;3.30;;
9214;SDS011;4642;51.364;6.788;2023-12-20T04:26:39;17.60;;;3.17;;
9214;SDS011;4642;51.364;6.788;2023-12-20T04:29:05;20.87;;;3.13;;
9214;SDS011;4642;51.364;6.788;2023-12-20T04:31:30;16.03;;;4.03;;
9214;SDS011;4642;51.364;6.788;2023-12-20T04:33:56;17.23;;;3.90;;
9214;SDS011;4642;51.364;6.788;2023-12-20T04:36:21;19.77;;;4.33;;
9214;SDS011;4642;51.364;6.788;2023-12-20T04:38:47;17.90;;;4.53;;
9214;SDS011;4642;51.364;6.788;2023-12-20T04:41:12;14.40;;;4.03;;
9214;SDS011;4642;51.364;6.788;2023-12-20T04:43:40;15.20;;;3.83;;
9214;SDS011;4642;51.364;6.788;2023-12-20T04:46:06;19.00;;;4.10;;
9214;SDS011;4642;51.364;6.788;2023-12-20T04:48:32;19.33;;;4.57;;
9214;SDS011;4642;51.364;6.788;2023-12-20T04:50:57;17.07;;;4.70;;
9214;SDS011;4642;51.364;6.788;2023-12-20T04:53:23;17.83;;;4.53;;
9214;SDS011;4642;51.364;6.788;2023-12-20T04:55:48;21.73;;;5.10;;
9214;SDS011;4642;51.364;6.788;2023-12-20T04:58:13;17.90;;;5.10;;
9214;SDS011;4642;51.364;6.788;2023-12-20T05:00:39;20.73;;;5.67;;
9214;SDS011;4642;51.364;6.788;2023-12-20T05:03:05;20.07;;;6.03;;
9214;SDS011;4642;51.364;6.788;2023-12-20T05:05:30;20.97;;;6.40;;
9214;SDS011;4642;51.364;6.788;2023-12-20T05:07:56;22.50;;;5.80;;
9214;SDS011;4642;51.364;6.788;2023-12-20T05:10:22;19.73;;;5.47;;
9214;SDS011;4642;51.364;6.788;2023-12-20T05:12:47;20.03;;;5.93;;
9214;SDS011;4642;51.364;6.788;2023-12-20T05:15:13;17.80;;;6.13;;
9214;SDS011;4642;51.364;6.788;2023-12-20T05:17:39;21.67;;;6.10;;
9214;SDS011;4642;51.364;6.788;2023-12-20T05:20:04;23.40;;;6.70;;
9214;SDS011;4642;51.364;6.788;2023-12-20T05:22:31;15.67;;;5.90;;
9214;SDS011;4642;51.364;6.788;2023-12-20T05:24:56;21.23;;;6.60;;
9214;SDS011;4642;51.364;6.788;2023-12-20T05:27:22;26.13;;;6.60;;
9214;SDS011;4642;51.364;6.788;2023-12-20T05:29:47;26.13;;;7.43;;
9214;SDS011;4642;51.364;6.788;2023-12-20T05:32:13;17.07;;;6.07;;
9214;SDS011;4642;51.364;6.788;2023-12-20T05:34:38;29.93;;;6.07;;
9214;SDS011;4642;51.364;6.788;2023-12-20T05:37:04;24.50;;;7.10;;
9214;SDS011;4642;51.364;6.788;2023-12-20T05:39:29;18.63;;;6.40;;
9214;SDS011;4642;51.364;6.788;2023-12-20T05:41:56;21.50;;;5.63;;
9214;SDS011;4642;51.364;6.788;2023-12-20T05:44:21;19.97;;;5.93;;
9214;SDS011;4642;51.364;6.788;2023-12-20T05:46:47;15.37;;;5.23;;
9214;SDS011;4642;51.364;6.788;2023-12-20T05:49:12;20.97;;;6.10;;
9214;SDS011;4642;51.364;6.788;2023-12-20T05:51:38;22.03;;;6.40;;
9214;SDS011;4642;51.364;6.788;2023-12-20T05:54:04;24.67;;;6.37;;
9214;SDS011;4642;51.364;6.788;2023-12-20T05:56:29;28.73;;;6.17;;
9214;SDS011;4642;51.364;6.788;2023-12-20T05:58:55;17.07;;;5.30;;
9214;SDS011;4642;51.364;6.788;2023-12-20T06:01:20;17.60;;;6.07;;
9214;SDS011;4642;51.364;6.788;2023-12-20T06:03:46;13.20;;;5.40;;
9214;SDS011;4642;51.364;6.788;2023-12-20T06:06:11;20.97;;;6.33;;
9214;SDS011;4642;51.364;6.788;2023-12-20T06:08:40;21.93;;;6.30;;
9214;SDS011;4642;51.364;6.788;2023-12-20T06:11:06;23.30;;;6.27;;
9214;SDS011;4642;51.364;6.788;2023-12-20T06:13:31;17.13;;;5.67;;
9214;SDS011;4642;51.364;6.788;2023-12-20T06:15:57;15.47;;;5.97;;
9214;SDS011;4642;51.364;6.788;2023-12-20T06:18:23;19.13;;;6.10;;
9214;SDS011;4642;51.364;6.788;2023-12-20T06:20:49;18.97;;;6.00;;
9214;SDS011;4642;51.364;6.788;2023-12-20T06:23:15;18.60;;;5.57;;
9214;SDS011;4642;51.364;6.788;2023-12-20T06:25:40;18.37;;;5.90;;
9214;SDS011;4642;51.364;6.788;2023-12-20T06:28:06;18.43;;;5.73;;
9214;SDS011;4642;51.364;6.788;2023-12-20T06:30:31;15.60;;;5.93;;
9214;SDS011;4642;51.364;6.788;2023-12-20T06:32:57;19.30;;;5.63;;
9214;SDS011;4642;51.364;6.788;2023-12-20T06:35:23;19.67;;;5.63;;
9214;SDS011;4642;51.364;6.788;2023-12-20T06:37:49;24.10;;;6.80;;
9214;SDS011;4642;51.364;6.788;2023-12-20T06:40:14;22.97;;;6.70;;
9214;SDS011;4642;51.364;6.788;2023-12-20T06:42:41;15.17;;;6.00;;
9214;SDS011;4642;51.364;6.788;2023-12-20T06:45:06;19.63;;;5.90;;
9214;SDS011;4642;51.364;6.788;2023-12-20T06:47:32;22.67;;;5.67;;
9214;SDS011;4642;51.364;6.788;2023-12-20T06:49:57;24.10;;;6.17;;
9214;SDS011;4642;51.364;6.788;2023-12-20T06:52:23;19.80;;;5.97;;
9214;SDS011;4642;51.364;6.788;2023-12-20T06:54:48;19.67;;;5.60;;
9214;SDS011;4642;51.364;6.788;2023-12-20T06:57:14;16.93;;;5.70;;
9214;SDS011;4642;51.364;6.788;2023-12-20T06:59:40;17.47;;;5.23;;
9214;SDS011;4642;51.364;6.788;2023-12-20T07:02:06;21.40;;;6.77;;
9214;SDS011;4642;51.364;6.788;2023-12-20T07:04:33;24.10;;;5.67;;
9214;SDS011;4642;51.364;6.788;2023-12-20T07:06:58;24.23;;;5.97;;
9214;SDS011;4642;51.364;6.788;2023-12-20T07:09:25;22.57;;;5.87;;
9214;SDS011;4642;51.364;6.788;2023-12-20T07:11:51;24.27;;;6.27;;
9214;SDS011;4642;51.364;6.788;2023-12-20T07:14:17;20.90;;;5.50;;
9214;SDS011;4642;51.364;6.788;2023-12-20T07:16:43;17.23;;;5.50;;
9214;SDS011;4642;51.364;6.788;2023-12-20T07:19:08;19.40;;;5.60;;
9214;SDS011;4642;51.364;6.788;2023-12-20T07:21:34;19.43;;;5.77;;
9214;SDS011;4642;51.364;6.788;2023-12-20T07:23:59;29.97;;;6.67;;
9214;SDS011;4642;51.364;6.788;2023-12-20T07:26:25;19.67;;;5.63;;
9214;SDS011;4642;51.364;6.788;2023-12-20T07:28:50;22.83;;;6.27;;
9214;SDS011;4642;51.364;6.788;2023-12-20T07:31:16;22.50;;;5.30;;
9214;SDS011;4642;51.364;6.788;2023-12-20T07:33:42;20.60;;;7.07;;
9214;SDS011;4642;51.364;6.788;2023-12-20T07:36:07;17.07;;;5.53;;
9214;SDS011;4642;51.364;6.788;2023-12-20T07:38:33;19.17;;;5.70;;
9214;SDS011;4642;51.364;6.788;2023-12-20T07:40:59;17.83;;;5.90;;
9214;SDS011;4642;51.364;6.788;2023-12-20T07:43:25;22.13;;;6.33;;
9214;SDS011;4642;51.364;6.788;2023-12-20T07:45:50;20.87;;;5.40;;
9214;SDS011;4642;51.364;6.788;2023-12-20T07:48:16;16.13;;;5.10;;
9214;SDS011;4642;51.364;6.788;2023-12-20T07:50:42;22.87;;;5.33;;
9214;SDS011;4642;51.364;6.788;2023-12-20T07:53:08;24.37;;;6.27;;
9214;SDS011;4642;51.364;6.788;2023-12-20T07:55:33;25.50;;;5.93;;
9214;SDS011;4642;51.364;6.788;2023-12-20T07:57:59;20.97;;;5.43;;
9214;SDS011;4642;51.364;6.788;2023-12-20T08:00:25;22.80;;;6.23;;
9214;SDS011;4642;51.364;6.788;2023-12-20T08:02:51;23.33;;;5.83;;
9214;SDS011;4642;51.364;6.788;2023-12-20T08:05:17;18.93;;;5.50;;
9214;SDS011;4642;51.364;6.788;2023-12-20T08:07:42;23.93;;;6.37;;
9214;SDS011;4642;51.364;6.788;2023-12-20T08:10:08;24.93;;;6.43;;
9214;SDS011;4642;51.364;6.788;2023-12-20T08:12:34;18.23;;;5.23;;
9214;SDS011;4642;51.364;6.788;2023-12-20T08:14:59;13.03;;;5.67;;
9214;SDS011;4642;51.364;6.788;2023-12-20T08:17:26;23.73;;;5.77;;
9214;SDS011;4642;51.364;6.788;2023-12-20T08:19:51;24.60;;;5.30;;
9214;SDS011;4642;51.364;6.788;2023-12-20T08:22:17;24.23;;;6.10;;
9214;SDS011;4642;51.364;6.788;2023-12-20T08:24:43;20.20;;;5.63;;
9214;SDS011;4642;51.364;6.788;2023-12-20T08:27:08;18.57;;;5.53;;
9214;SDS011;4642;51.364;6.788;2023-12-20T08:29:34;18.83;;;6.07;;
9214;SDS011;4642;51.364;6.788;2023-12-20T08:32:00;20.20;;;4.90;;
9214;SDS011;4642;51.364;6.788;2023-12-20T08:34:26;18.50;;;5.40;;
9214;SDS011;4642;51.364;6.788;2023-12-20T08:36:51;23.00;;;5.80;;
9214;SDS011;4642;51.364;6.788;2023-12-20T08:39:17;21.00;;;6.00;;
9214;SDS011;4642;51.364;6.788;2023-12-20T08:41:43;18.00;;;5.03;;
9214;SDS011;4642;51.364;6.788;2023-12-20T08:44:08;21.57;;;4.67;;
9214;SDS011;4642;51.364;6.788;2023-12-20T08:46:34;18.77;;;4.97;;
9214;SDS011;4642;51.364;6.788;2023-12-20T08:49:00;20.67;;;5.60;;
9214;SDS011;4642;51.364;6.788;2023-12-20T08:51:26;19.40;;;5.83;;
9214;SDS011;4642;51.364;6.788;2023-12-20T08:53:52;16.13;;;4.37;;
9214;SDS011;4642;51.364;6.788;2023-12-20T08:56:18;13.90;;;4.63;;
9214;SDS011;4642;51.364;6.788;2023-12-20T08:58:44;16.67;;;4.33;;
9214;SDS011;4642;51.364;6.788;2023-12-20T09:01:13;20.50;;;4.33;;
9214;SDS011;4642;51.364;6.788;2023-12-20T09:03:39;13.40;;;3.97;;
9214;SDS011;4642;51.364;6.788;2023-12-20T09:06:05;16.57;;;4.13;;
9214;SDS011;4642;51.364;6.788;2023-12-20T09:08:31;20.57;;;3.97;;
9214;SDS011;4642;51.364;6.788;2023-12-20T09:10:56;21.10;;;4.50;;
9214;SDS011;4642;51.364;6.788;2023-12-20T09:13:22;12.13;;;3.97;;
9214;SDS011;4642;51.364;6.788;2023-12-20T09:15:53;15.37;;;3.87;;
9214;SDS011;4642;51.364;6.788;2023-12-20T09:18:19;15.50;;;4.67;;
9214;SDS011;4642;51.364;6.788;2023-12-20T09:20:45;13.93;;;3.43;;
9214;SDS011;4642;51.364;6.788;2023-12-20T09:23:11;16.33;;;4.67;;
9214;SDS011;4642;51.364;6.788;2023-12-20T09:25:36;16.70;;;4.13;;
9214;SDS011;4642;51.364;6.788;2023-12-20T09:28:02;16.53;;;3.97;;
9214;SDS011;4642;51.364;6.788;2023-12-20T09:30:27;23.67;;;4.20;;
9214;SDS011;4642;51.364;6.788;2023-12-20T09:32:54;15.87;;;3.93;;
9214;SDS011;4642;51.364;6.788;2023-12-20T09:35:20;22.40;;;3.80;;
9214;SDS011;4642;51.364;6.788;2023-12-20T09:37:45;23.43;;;4.13;;
9214;SDS011;4642;51.364;6.788;2023-12-20T09:40:12;14.13;;;3.87;;
9214;SDS011;4642;51.364;6.788;2023-12-20T09:42:44;14.73;;;3.50;;
9214;SDS011;4642;51.364;6.788;2023-12-20T09:45:16;18.63;;;4.07;;
9214;SDS011;4642;51.364;6.788;2023-12-20T09:47:46;19.87;;;4.00;;
9214;SDS011;4642;51.364;6.788;2023-12-20T09:50:13;13.63;;;4.00;;
9214;SDS011;4642;51.364;6.788;2023-12-20T09:52:39;17.07;;;3.83;;
9214;SDS011;4642;51.364;6.788;2023-12-20T09:55:05;11.77;;;4.00;;
9214;SDS011;4642;51.364;6.788;2023-12-20T09:57:32;15.43;;;3.40;;
9214;SDS011;4642;51.364;6.788;2023-12-20T09:59:58;19.63;;;4.17;;
9214;SDS011;4642;51.364;6.788;2023-12-20T10:02:24;13.23;;;3.60;;
9214;SDS011;4642;51.364;6.788;2023-12-20T10:04:54;17.97;;;3.77;;
9214;SDS011;4642;51.364;6.788;2023-12-20T10:07:20;13.80;;;3.67;;
9214;SDS011;4642;51.364;6.788;2023-12-20T10:09:47;15.43;;;3.63;;
9214;SDS011;4642;51.364;6.788;2023-12-20T10:12:13;16.27;;;3.60;;
9214;SDS011;4642;51.364;6.788;2023-12-20T10:14:38;13.07;;;3.87;;
9214;SDS011;4642;51.364;6.788;2023-12-20T10:17:05;18.37;;;3.97;;
9214;SDS011;4642;51.364;6.788;2023-12-20T10:19:31;21.60;;;4.57;;
9214;SDS011;4642;51.364;6.788;2023-12-20T10:21:58;18.37;;;3.53;;
9214;SDS011;4642;51.364;6.788;2023-12-20T10:24:24;21.50;;;4.50;;
9214;SDS011;4642;51.364;6.788;2023-12-20T10:27:00;13.90;;;3.87;;
9214;SDS011;4642;51.364;6.788;2023-12-20T10:29:33;13.80;;;3.83;;
9214;SDS011;4642;51.364;6.788;2023-12-20T10:32:00;17.27;;;4.10;;
9214;SDS011;4642;51.364;6.788;2023-12-20T10:34:52;14.47;;;3.87;;
9214;SDS011;4642;51.364;6.788;2023-12-20T10:37:19;14.83;;;4.27;;
9214;SDS011;4642;51.364;6.788;2023-12-20T10:39:51;17.43;;;4.27;;
9214;SDS011;4642;51.364;6.788;2023-12-20T10:42:21;16.17;;;3.60;;
9214;SDS011;4642;51.364;6.788;2023-12-20T10:44:47;19.10;;;3.90;;
9214;SDS011;4642;51.364;6.788;2023-12-20T10:47:15;16.93;;;3.87;;
9214;SDS011;4642;51.364;6.788;2023-12-20T10:49:41;13.40;;;3.13;;
9214;SDS011;4642;51.364;6.788;2023-12-20T10:52:07;13.50;;;3.27;;
9214;SDS011;4642;51.364;6.788;2023-12-20T10:54:34;20.57;;;3.87;;
9214;SDS011;4642;51.364;6.788;2023-12-20T10:56:59;17.20;;;4.20;;
9214;SDS011;4642;51.364;6.788;2023-12-20T10:59:27;18.67;;;3.93;;
9214;SDS011;4642;51.364;6.788;2023-12-20T11:01:57;23.33;;;4.27;;
9214;SDS011;4642;51.364;6.788;2023-12-20T11:04:25;14.50;;;3.70;;
9214;SDS011;4642;51.364;6.788;2023-12-20T11:07:08;16.57;;;3.97;;
9214;SDS011;4642;51.364;6.788;2023-12-20T11:10:01;13.50;;;3.63;;
9214;SDS011;4642;51.364;6.788;2023-12-20T11:12:41;13.97;;;3.90;;
9214;SDS011;4642;51.364;6.788;2023-12-20T11:15:12;13.70;;;3.83;;
9214;SDS011;4642;51.364;6.788;2023-12-20T11:17:39;14.23;;;3.90;;
9214;SDS011;4642;51.364;6.788;2023-12-20T11:20:08;18.13;;;4.47;;
9214;SDS011;4642;51.364;6.788;2023-12-20T11:22:35;21.20;;;4.03;;
9214;SDS011;4642;51.364;6.788;2023-12-20T11:25:03;15.70;;;4.10;;
9214;SDS011;4642;51.364;6.788;2023-12-20T11:27:31;17.23;;;3.80;;
9214;SDS011;4642;51.364;6.788;2023-12-20T11:29:57;20.27;;;4.10;;
9214;SDS011;4642;51.364;6.788;2023-12-20T11:34:50;15.87;;;4.10;;
9214;SDS011;4642;51.364;6.788;2023-12-20T11:37:16;15.00;;;3.40;;
9214;SDS011;4642;51.364;6.788;2023-12-20T11:39:44;13.30;;;3.90;;
9214;SDS011;4642;51.364;6.788;2023-12-20T11:42:09;19.30;;;4.93;;
9214;SDS011;4642;51.364;6.788;2023-12-20T11:44:36;18.37;;;3.40;;
9214;SDS011;4642;51.364;6.788;2023-12-20T11:47:02;18.47;;;4.10;;
9214;SDS011;4642;51.364;6.788;2023-12-20T11:49:28;18.83;;;3.77;;
9214;SDS011;4642;51.364;6.788;2023-12-20T11:51:55;15.80;;;3.60;;
9214;SDS011;4642;51.364;6.788;2023-12-20T11:54:21;11.37;;;2.90;;
9214;SDS011;4642;51.364;6.788;2023-12-20T11:56:47;17.10;;;3.63;;
9214;SDS011;4642;51.364;6.788;2023-12-20T11:59:13;17.30;;;3.57;;
9214;SDS011;4642;51.364;6.788;2023-12-20T12:01:40;14.63;;;3.17;;
9214;SDS011;4642;51.364;6.788;2023-12-20T12:04:12;14.70;;;3.87;;
9214;SDS011;4642;51.364;6.788;2023-12-20T12:06:37;17.67;;;3.97;;
9214;SDS011;4642;51.364;6.788;2023-12-20T12:09:03;14.57;;;3.60;;
9214;SDS011;4642;51.364;6.788;2023-12-20T12:11:29;13.10;;;3.70;;
9214;SDS011;4642;51.364;6.788;2023-12-20T12:13:55;13.13;;;3.20;;
9214;SDS011;4642;51.364;6.788;2023-12-20T12:16:20;18.63;;;4.13;;
9214;SDS011;4642;51.364;6.788;2023-12-20T12:18:54;15.30;;;3.40;;
9214;SDS011;4642;51.364;6.788;2023-12-20T12:21:20;20.57;;;4.13;;
9214;SDS011;4642;51.364;6.788;2023-12-20T12:23:46;15.47;;;3.77;;
9214;SDS011;4642;51.364;6.788;2023-12-20T12:26:11;14.73;;;3.77;;
9214;SDS011;4642;51.364;6.788;2023-12-20T12:28:39;10.60;;;3.50;;
9214;SDS011;4642;51.364;6.788;2023-12-20T12:31:06;14.30;;;4.13;;
9214;SDS011;4642;51.364;6.788;2023-12-20T12:33:32;13.67;;;3.40;;
9214;SDS011;4642;51.364;6.788;2023-12-20T12:35:58;14.63;;;3.97;;
9214;SDS011;4642;51.364;6.788;2023-12-20T12:38:29;15.70;;;4.07;;
9214;SDS011;4642;51.364;6.788;2023-12-20T12:40:55;18.93;;;4.50;;
9214;SDS011;4642;51.364;6.788;2023-12-20T12:43:21;11.93;;;3.47;;
9214;SDS011;4642;51.364;6.788;2023-12-20T12:45:47;17.87;;;4.13;;
9214;SDS011;4642;51.364;6.788;2023-12-20T12:48:13;11.17;;;3.40;;
9214;SDS011;4642;51.364;6.788;2023-12-20T12:50:39;20.63;;;4.63;;
9214;SDS011;4642;51.364;6.788;2023-12-20T12:53:05;15.10;;;3.73;;
9214;SDS011;4642;51.364;6.788;2023-12-20T12:55:30;14.07;;;3.33;;
9214;SDS011;4642;51.364;6.788;2023-12-20T12:57:56;13.57;;;3.87;;
9214;SDS011;4642;51.364;6.788;2023-12-20T13:00:21;19.67;;;4.37;;
9214;SDS011;4642;51.364;6.788;2023-12-20T13:02:47;13.13;;;3.63;;
9214;SDS011;4642;51.364;6.788;2023-12-20T13:05:13;17.57;;;4.50;;
9214;SDS011;4642;51.364;6.788;2023-12-20T13:07:39;16.67;;;4.03;;
9214;SDS011;4642;51.364;6.788;2023-12-20T13:10:04;12.97;;;3.73;;
9214;SDS011;4642;51.364;6.788;2023-12-20T13:12:30;17.57;;;4.77;;
9214;SDS011;4642;51.364;6.788;2023-12-20T13:14:57;15.23;;;3.83;;
9214;SDS011;4642;51.364;6.788;2023-12-20T13:17:22;14.80;;;4.37;;
9214;SDS011;4642;51.364;6.788;2023-12-20T13:19:48;15.07;;;4.40;;
9214;SDS011;4642;51.364;6.788;2023-12-20T13:22:14;15.83;;;4.57;;
9214;SDS011;4642;51.364;6.788;2023-12-20T13:24:40;16.27;;;3.97;;
9214;SDS011;4642;51.364;6.788;2023-12-20T13:27:06;16.10;;;4.27;;
9214;SDS011;4642;51.364;6.788;2023-12-20T13:29:31;13.53;;;4.67;;
9214;SDS011;4642;51.364;6.788;2023-12-20T13:31:57;18.10;;;5.20;;
9214;SDS011;4642;51.364;6.788;2023-12-20T13:34:22;13.27;;;5.17;;
9214;SDS011;4642;51.364;6.788;2023-12-20T13:36:48;14.50;;;4.67;;
9214;SDS011;4642;51.364;6.788;2023-12-20T13:39:15;13.30;;;4.30;;
9214;SDS011;4642;51.364;6.788;2023-12-20T13:41:41;15.37;;;4.53;;
9214;SDS011;4642;51.364;6.788;2023-12-20T13:44:07;14.40;;;5.10;;
9214;SDS011;4642;51.364;6.788;2023-12-20T13:46:33;15.00;;;4.90;;
9214;SDS011;4642;51.364;6.788;2023-12-20T13:48:58;17.33;;;5.67;;
9214;SDS011;4642;51.364;6.788;2023-12-20T13:51:24;18.50;;;5.50;;
9214;SDS011;4642;51.364;6.788;2023-12-20T13:53:50;12.03;;;4.90;;
9214;SDS011;4642;51.364;6.788;2023-12-20T13:56:15;22.83;;;5.10;;
9214;SDS011;4642;51.364;6.788;2023-12-20T13:58:41;15.03;;;4.93;;
9214;SDS011;4642;51.364;6.788;2023-12-20T14:01:07;13.57;;;5.20;;
9214;SDS011;4642;51.364;6.788;2023-12-20T14:03:34;19.13;;;5.87;;
9214;SDS011;4642;51.364;6.788;2023-12-20T14:05:59;17.17;;;5.70;;
9214;SDS011;4642;51.364;6.788;2023-12-20T14:08:26;14.40;;;5.63;;
9214;SDS011;4642;51.364;6.788;2023-12-20T14:10:52;16.13;;;5.40;;
9214;SDS011;4642;51.364;6.788;2023-12-20T14:13:18;13.60;;;5.50;;
9214;SDS011;4642;51.364;6.788;2023-12-20T14:15:43;17.57;;;5.87;;
9214;SDS011;4642;51.364;6.788;2023-12-20T14:18:09;17.63;;;5.47;;
9214;SDS011;4642;51.364;6.788;2023-12-20T14:20:35;16.47;;;5.37;;
9214;SDS011;4642;51.364;6.788;2023-12-20T14:23:03;13.37;;;5.03;;
9214;SDS011;4642;51.364;6.788;2023-12-20T14:25:29;16.23;;;5.53;;
9214;SDS011;4642;51.364;6.788;2023-12-20T14:27:56;14.20;;;4.93;;
9214;SDS011;4642;51.364;6.788;2023-12-20T14:30:22;24.17;;;5.93;;
9214;SDS011;4642;51.364;6.788;2023-12-20T14:32:47;13.07;;;5.30;;
9214;SDS011;4642;51.364;6.788;2023-12-20T14:35:13;17.40;;;5.70;;
9214;SDS011;4642;51.364;6.788;2023-12-20T14:37:39;22.73;;;5.73;;
9214;SDS011;4642;51.364;6.788;2023-12-20T14:40:08;14.20;;;5.37;;
9214;SDS011;4642;51.364;6.788;2023-12-20T14:42:39;12.67;;;5.17;;
9214;SDS011;4642;51.364;6.788;2023-12-20T14:45:08;13.53;;;5.07;;
9214;SDS011;4642;51.364;6.788;2023-12-20T14:47:34;14.00;;;5.33;;
9214;SDS011;4642;51.364;6.788;2023-12-20T14:50:01;13.27;;;4.77;;
9214;SDS011;4642;51.364;6.788;2023-12-20T14:52:31;15.73;;;5.40;;
9214;SDS011;4642;51.364;6.788;2023-12-20T14:54:58;19.63;;;6.00;;
9214;SDS011;4642;51.364;6.788;2023-12-20T14:57:24;14.67;;;5.03;;